createdAt,value
2019-02-18T00:00:56.794Z,0.00
2019-02-18T00:01:56.779Z,0.00
2019-02-18T00:02:56.756Z,0.00
2019-02-18T00:03:56.749Z,0.00
2019-02-18T00:04:56.712Z,0.00
2019-02-18T00:05:56.691Z,0.00
2019-02-18T00:06:56.669Z,0.00
2019-02-18T00:07:56.649Z,0.00
2019-02-18T00:08:56.626Z,0.00
2019-02-18T00:09:56.669Z,0.00
2019-02-18T00:10:56.591Z,0.00
2019-02-18T00:11:56.564Z,0.00
2019-02-18T00:12:56.543Z,0.00
2019-02-18T00:13:56.512Z,0.00
2019-02-18T00:14:56.499Z,0.00
2019-02-18T00:15:56.481Z,0.00
2019-02-18T00:16:56.458Z,0.00
2019-02-18T00:17:56.436Z,0.00
2019-02-18T00:18:56.410Z,0.00
2019-02-18T00:19:56.396Z,0.00
2019-02-18T00:20:56.370Z,0.00
2019-02-18T00:21:56.346Z,0.00
2019-02-18T00:22:56.341Z,0.00
2019-02-18T00:23:56.310Z,0.00
2019-02-18T00:24:56.287Z,0.00
2019-02-18T00:25:56.269Z,0.00
2019-02-18T00:26:56.246Z,0.00
2019-02-18T00:27:56.229Z,0.00
2019-02-18T00:28:56.204Z,0.00
2019-02-18T00:29:56.195Z,0.00
2019-02-18T00:30:56.162Z,0.00
2019-02-18T00:31:56.133Z,0.00
2019-02-18T00:32:56.121Z,0.00
2019-02-18T00:33:56.092Z,0.00
2019-02-18T00:34:56.081Z,0.00
2019-02-18T00:35:56.063Z,0.00
2019-02-18T00:36:56.027Z,0.00
2019-02-18T00:37:56.006Z,0.00
2019-02-18T00:38:55.988Z,0.00
2019-02-18T00:39:55.968Z,0.00
2019-02-18T00:40:55.971Z,0.00
2019-02-18T00:41:55.950Z,0.00
2019-02-18T00:42:55.899Z,0.00
2019-02-18T00:43:55.892Z,0.00
2019-02-18T00:44:55.875Z,0.00
2019-02-18T00:45:55.843Z,0.00
2019-02-18T00:46:55.818Z,0.00
2019-02-18T00:47:55.795Z,0.00
2019-02-18T00:48:55.782Z,0.00
2019-02-18T00:49:55.764Z,0.00
2019-02-18T00:50:55.736Z,0.00
2019-02-18T00:51:55.713Z,0.00
2019-02-18T00:52:55.701Z,0.00
2019-02-18T00:53:55.688Z,0.00
2019-02-18T00:54:55.645Z,0.00
2019-02-18T00:55:55.624Z,0.00
2019-02-18T00:56:55.605Z,0.00
2019-02-18T00:57:55.575Z,0.00
2019-02-18T00:58:55.562Z,0.00
2019-02-18T00:59:55.561Z,0.00
2019-02-18T01:00:55.519Z,0.00
2019-02-18T01:01:55.539Z,0.00
2019-02-18T01:02:55.471Z,0.00
2019-02-18T01:03:55.450Z,0.00
2019-02-18T01:04:55.429Z,0.00
2019-02-18T01:05:55.412Z,0.00
2019-02-18T01:06:55.396Z,0.00
2019-02-18T01:07:55.392Z,0.00
2019-02-18T01:08:55.343Z,0.00
2019-02-18T01:09:55.354Z,0.00
2019-02-18T01:10:55.309Z,0.00
2019-02-18T01:11:55.277Z,0.00
2019-02-18T01:12:55.258Z,0.00
2019-02-18T01:13:55.257Z,0.00
2019-02-18T01:14:55.216Z,0.00
2019-02-18T01:15:55.229Z,0.00
2019-02-18T01:16:55.171Z,0.00
2019-02-18T01:17:55.153Z,0.00
2019-02-18T01:18:55.118Z,0.00
2019-02-18T01:19:55.106Z,0.00
2019-02-18T01:20:55.078Z,0.00
2019-02-18T01:21:55.054Z,0.00
2019-02-18T01:22:55.037Z,0.00
2019-02-18T01:23:55.017Z,0.00
2019-02-18T01:24:54.994Z,0.00
2019-02-18T01:25:54.965Z,0.00
2019-02-18T01:26:54.950Z,0.00
2019-02-18T01:27:54.965Z,0.00
2019-02-18T01:28:54.907Z,0.00
2019-02-18T01:29:54.884Z,0.00
2019-02-18T01:30:54.862Z,0.00
2019-02-18T01:31:54.839Z,0.00
2019-02-18T01:32:54.818Z,0.00
2019-02-18T01:33:54.811Z,0.00
2019-02-18T01:34:54.783Z,0.00
2019-02-18T01:35:54.749Z,0.00
2019-02-18T01:36:54.743Z,0.00
2019-02-18T01:37:54.708Z,0.00
2019-02-18T01:38:54.687Z,0.00
2019-02-18T01:39:54.731Z,0.00
2019-02-18T01:40:54.643Z,0.00
2019-02-18T01:41:54.614Z,0.00
2019-02-18T01:42:54.605Z,0.00
2019-02-18T01:43:54.571Z,0.00
2019-02-18T01:44:54.552Z,0.00
2019-02-18T01:45:54.536Z,0.00
2019-02-18T01:46:54.517Z,0.00
2019-02-18T01:47:54.490Z,0.00
2019-02-18T01:48:54.476Z,0.00
2019-02-18T01:49:54.443Z,0.00
2019-02-18T01:50:54.414Z,0.00
2019-02-18T01:51:54.399Z,0.00
2019-02-18T01:52:54.451Z,0.00
2019-02-18T01:53:54.354Z,0.00
2019-02-18T01:54:54.336Z,0.00
2019-02-18T01:55:54.309Z,0.00
2019-02-18T01:56:54.291Z,0.00
2019-02-18T01:57:54.261Z,0.00
2019-02-18T01:58:54.247Z,0.00
2019-02-18T01:59:54.237Z,0.00
2019-02-18T02:00:54.214Z,0.00
2019-02-18T02:01:54.174Z,0.00
2019-02-18T02:02:54.154Z,0.00
2019-02-18T02:03:54.133Z,0.00
2019-02-18T02:04:54.107Z,0.00
2019-02-18T02:05:54.088Z,0.00
2019-02-18T02:06:54.065Z,0.00
2019-02-18T02:07:56.577Z,0.00
2019-02-18T02:08:54.023Z,0.00
2019-02-18T02:09:54.017Z,0.00
2019-02-18T02:10:53.995Z,0.00
2019-02-18T02:11:53.955Z,0.00
2019-02-18T02:12:53.942Z,0.00
2019-02-18T02:13:53.913Z,0.00
2019-02-18T02:14:53.897Z,0.00
2019-02-18T02:15:53.865Z,0.00
2019-02-18T02:16:53.849Z,0.00
2019-02-18T02:17:53.858Z,0.00
2019-02-18T02:18:53.805Z,0.00
2019-02-18T02:19:53.780Z,0.00
2019-02-18T02:20:53.756Z,0.00
2019-02-18T02:21:53.733Z,0.00
2019-02-18T02:22:53.712Z,0.00
2019-02-18T02:23:53.690Z,0.00
2019-02-18T02:24:53.697Z,0.00
2019-02-18T02:25:53.644Z,0.00
2019-02-18T02:26:53.623Z,0.00
2019-02-18T02:27:53.591Z,0.00
2019-02-18T02:28:53.578Z,0.00
2019-02-18T02:29:53.565Z,0.00
2019-02-18T02:30:53.532Z,0.00
2019-02-18T02:31:53.505Z,0.00
2019-02-18T02:32:53.493Z,0.00
2019-02-18T02:33:53.467Z,0.00
2019-02-18T02:34:53.449Z,0.00
2019-02-18T02:35:53.429Z,0.00
2019-02-18T02:36:53.442Z,0.00
2019-02-18T02:37:53.386Z,0.00
2019-02-18T02:38:53.359Z,0.00
2019-02-18T02:39:53.349Z,0.00
2019-02-18T02:40:53.314Z,0.00
2019-02-18T02:41:53.290Z,0.00
2019-02-18T02:42:53.270Z,0.00
2019-02-18T02:43:53.246Z,0.00
2019-02-18T02:44:53.225Z,0.00
2019-02-18T02:45:53.212Z,0.00
2019-02-18T02:46:53.181Z,0.00
2019-02-18T02:47:53.156Z,0.00
2019-02-18T02:48:53.135Z,0.00
2019-02-18T02:49:53.115Z,0.00
2019-02-18T02:50:53.091Z,0.00
2019-02-18T02:51:53.071Z,0.00
2019-02-18T02:52:53.049Z,0.00
2019-02-18T02:53:53.025Z,0.00
2019-02-18T02:54:53.000Z,0.00
2019-02-18T02:55:52.980Z,0.00
2019-02-18T02:56:52.958Z,0.00
2019-02-18T02:57:52.939Z,0.00
2019-02-18T02:58:52.912Z,0.00
2019-02-18T02:59:52.895Z,0.00
2019-02-18T03:00:52.867Z,0.00
2019-02-18T03:01:52.850Z,0.00
2019-02-18T03:02:52.825Z,0.00
2019-02-18T03:03:52.808Z,0.00
2019-02-18T03:04:52.781Z,0.00
2019-02-18T03:05:52.767Z,0.00
2019-02-18T03:06:52.731Z,0.00
2019-02-18T03:07:52.710Z,0.00
2019-02-18T03:08:52.690Z,0.00
2019-02-18T03:09:52.687Z,0.00
2019-02-18T03:10:52.670Z,0.00
2019-02-18T03:11:52.617Z,0.00
2019-02-18T03:12:52.613Z,0.00
2019-02-18T03:13:52.587Z,0.00
2019-02-18T03:14:52.560Z,0.00
2019-02-18T03:15:52.540Z,0.00
2019-02-18T03:16:52.519Z,0.00
2019-02-18T03:17:52.493Z,0.00
2019-02-18T03:18:52.471Z,0.00
2019-02-18T03:19:52.448Z,0.00
2019-02-18T03:20:52.434Z,0.00
2019-02-18T03:21:52.405Z,0.00
2019-02-18T03:22:52.381Z,0.00
2019-02-18T03:23:52.363Z,0.00
2019-02-18T03:24:52.345Z,0.00
2019-02-18T03:25:52.317Z,0.00
2019-02-18T03:26:52.294Z,0.00
2019-02-18T03:27:52.271Z,0.00
2019-02-18T03:28:52.249Z,0.00
2019-02-18T03:29:52.229Z,0.00
2019-02-18T03:30:52.231Z,0.00
2019-02-18T03:31:52.184Z,0.00
2019-02-18T03:32:52.384Z,0.00
2019-02-18T03:33:52.140Z,0.00
2019-02-18T03:34:52.120Z,0.00
2019-02-18T03:35:52.093Z,0.00
2019-02-18T03:36:52.073Z,0.00
2019-02-18T03:37:52.053Z,0.00
2019-02-18T03:38:52.024Z,0.00
2019-02-18T03:39:52.007Z,0.00
2019-02-18T03:41:02.490Z,0.00
2019-02-18T03:41:51.959Z,0.00
2019-02-18T03:42:51.953Z,0.00
2019-02-18T03:43:51.914Z,0.00
2019-02-18T03:44:51.904Z,0.00
2019-02-18T03:45:51.904Z,0.00
2019-02-18T03:46:51.854Z,0.00
2019-02-18T03:47:51.837Z,0.00
2019-02-18T03:48:51.890Z,0.00
2019-02-18T03:49:51.783Z,0.00
2019-02-18T03:50:51.779Z,0.00
2019-02-18T03:51:51.744Z,0.00
2019-02-18T03:52:51.719Z,0.00
2019-02-18T03:53:51.691Z,0.00
2019-02-18T03:54:51.672Z,0.00
2019-02-18T03:55:51.682Z,0.00
2019-02-18T03:56:51.637Z,0.00
2019-02-18T03:57:51.626Z,0.00
2019-02-18T03:58:51.585Z,0.00
2019-02-18T03:59:51.559Z,0.00
2019-02-18T04:00:51.541Z,0.00
2019-02-18T04:01:51.518Z,0.00
2019-02-18T04:02:51.499Z,0.00
2019-02-18T04:03:51.473Z,0.00
2019-02-18T04:04:51.454Z,0.00
2019-02-18T04:05:51.431Z,0.00
2019-02-18T04:06:51.421Z,0.00
2019-02-18T04:07:51.388Z,0.00
2019-02-18T04:08:51.354Z,0.00
2019-02-18T04:09:51.346Z,0.00
2019-02-18T04:10:51.312Z,0.00
2019-02-18T04:11:51.316Z,0.00
2019-02-18T04:12:51.287Z,0.00
2019-02-18T04:13:51.245Z,0.00
2019-02-18T04:14:51.224Z,0.00
2019-02-18T04:15:51.210Z,0.00
2019-02-18T04:16:51.197Z,0.00
2019-02-18T04:17:51.189Z,0.00
2019-02-18T04:18:51.132Z,0.00
2019-02-18T04:19:51.108Z,0.00
2019-02-18T04:20:51.121Z,0.00
2019-02-18T04:21:51.071Z,0.00
2019-02-18T04:22:51.047Z,0.00
2019-02-18T04:23:51.033Z,0.00
2019-02-18T04:24:51.004Z,0.00
2019-02-18T04:25:50.984Z,0.00
2019-02-18T04:26:50.959Z,0.00
2019-02-18T04:27:50.957Z,0.00
2019-02-18T04:28:50.914Z,0.00
2019-02-18T04:29:50.891Z,0.00
2019-02-18T04:30:50.884Z,0.00
2019-02-18T04:31:50.873Z,0.00
2019-02-18T04:32:50.827Z,0.00
2019-02-18T04:33:50.802Z,0.00
2019-02-18T04:34:50.772Z,0.00
2019-02-18T04:35:50.762Z,0.00
2019-02-18T04:36:50.729Z,0.00
2019-02-18T04:37:50.721Z,0.00
2019-02-18T04:38:53.997Z,0.00
2019-02-18T04:39:50.659Z,0.00
2019-02-18T04:40:50.635Z,0.00
2019-02-18T04:41:50.615Z,0.00
2019-02-18T04:42:50.604Z,0.00
2019-02-18T04:43:50.566Z,0.00
2019-02-18T04:44:50.552Z,0.00
2019-02-18T04:45:50.532Z,0.00
2019-02-18T04:46:50.501Z,0.00
2019-02-18T04:47:50.475Z,0.00
2019-02-18T04:48:50.456Z,0.00
2019-02-18T04:49:50.441Z,0.00
2019-02-18T04:50:50.412Z,0.00
2019-02-18T04:51:50.392Z,0.00
2019-02-18T04:52:50.371Z,0.00
2019-02-18T04:53:50.348Z,0.00
2019-02-18T04:54:50.322Z,0.00
2019-02-18T04:55:50.301Z,0.00
2019-02-18T04:56:50.282Z,0.00
2019-02-18T04:57:50.251Z,0.00
2019-02-18T04:58:50.243Z,0.00
2019-02-18T04:59:50.243Z,0.00
2019-02-18T05:00:50.219Z,0.00
2019-02-18T05:01:50.164Z,0.00
2019-02-18T05:02:50.181Z,0.00
2019-02-18T05:03:50.119Z,0.00
2019-02-18T05:04:50.101Z,0.00
2019-02-18T05:05:50.105Z,0.00
2019-02-18T05:06:50.049Z,0.00
2019-02-18T05:07:50.032Z,0.00
2019-02-18T05:08:50.009Z,0.00
2019-02-18T05:09:49.979Z,0.00
2019-02-18T05:10:49.961Z,0.00
2019-02-18T05:11:49.937Z,0.00
2019-02-18T05:12:49.918Z,0.00
2019-02-18T05:13:49.889Z,0.00
2019-02-18T05:14:49.873Z,0.00
2019-02-18T05:15:49.857Z,0.00
2019-02-18T05:16:49.826Z,0.00
2019-02-18T05:17:49.807Z,0.00
2019-02-18T05:18:49.775Z,0.00
2019-02-18T05:19:49.755Z,0.00
2019-02-18T05:20:49.729Z,0.00
2019-02-18T05:21:49.719Z,0.00
2019-02-18T05:22:49.694Z,0.00
2019-02-18T05:23:49.659Z,0.00
2019-02-18T05:24:49.643Z,0.00
2019-02-18T05:25:49.626Z,0.00
2019-02-18T05:26:49.595Z,0.00
2019-02-18T05:27:49.570Z,0.00
2019-02-18T05:28:49.553Z,0.00
2019-02-18T05:29:49.528Z,0.00
2019-02-18T05:30:49.510Z,0.00
2019-02-18T05:31:49.484Z,0.00
2019-02-18T05:32:49.450Z,0.00
2019-02-18T05:33:49.450Z,0.00
2019-02-18T05:34:49.445Z,0.00
2019-02-18T05:35:49.396Z,0.00
2019-02-18T05:36:49.377Z,0.00
2019-02-18T05:37:49.379Z,0.00
2019-02-18T05:38:49.318Z,0.00
2019-02-18T05:39:49.296Z,0.00
2019-02-18T05:40:49.286Z,0.00
2019-02-18T05:41:49.280Z,0.00
2019-02-18T05:42:49.308Z,0.00
2019-02-18T05:43:49.242Z,0.00
2019-02-18T05:44:49.196Z,0.00
2019-02-18T05:45:49.164Z,0.00
2019-02-18T05:46:49.135Z,0.00
2019-02-18T05:47:49.124Z,0.00
2019-02-18T05:48:49.090Z,0.00
2019-02-18T05:49:49.078Z,0.00
2019-02-18T05:50:49.042Z,0.00
2019-02-18T05:51:49.037Z,0.00
2019-02-18T05:52:49.036Z,0.00
2019-02-18T05:53:48.990Z,0.00
2019-02-18T05:54:48.981Z,0.00
2019-02-18T05:55:48.964Z,0.00
2019-02-18T05:56:48.919Z,0.00
2019-02-18T05:57:48.889Z,0.00
2019-02-18T05:58:48.886Z,0.00
2019-02-18T05:59:48.844Z,0.00
2019-02-18T06:00:48.826Z,0.00
2019-02-18T06:01:48.814Z,0.00
2019-02-18T06:02:48.789Z,0.00
2019-02-18T06:03:48.752Z,0.00
2019-02-18T06:04:48.751Z,0.00
2019-02-18T06:05:48.744Z,0.00
2019-02-18T06:06:48.723Z,0.00
2019-02-18T06:07:48.663Z,0.00
2019-02-18T06:08:48.667Z,0.00
2019-02-18T06:09:48.626Z,0.00
2019-02-18T06:10:48.592Z,0.00
2019-02-18T06:11:48.592Z,0.00
2019-02-18T06:12:48.575Z,4.00
2019-02-18T06:13:48.524Z,0.00
2019-02-18T06:14:48.502Z,0.00
2019-02-18T06:15:48.503Z,4.00
2019-02-18T06:16:48.474Z,4.00
2019-02-18T06:17:48.440Z,4.00
2019-02-18T06:18:48.437Z,8.00
2019-02-18T06:19:48.414Z,4.00
2019-02-18T06:20:48.369Z,4.00
2019-02-18T06:21:48.382Z,8.00
2019-02-18T06:22:48.340Z,8.00
2019-02-18T06:23:48.303Z,8.00
2019-02-18T06:24:48.287Z,12.00
2019-02-18T06:25:48.278Z,16.00
2019-02-18T06:26:48.241Z,16.00
2019-02-18T06:27:48.208Z,20.00
2019-02-18T06:28:48.264Z,24.00
2019-02-18T06:29:48.228Z,28.00
2019-02-18T06:30:48.145Z,36.00
2019-02-18T06:31:48.128Z,40.00
2019-02-18T06:32:48.254Z,44.00
2019-02-18T06:33:48.071Z,52.00
2019-02-18T06:34:48.059Z,56.00
2019-02-18T06:35:48.037Z,68.00
2019-02-18T06:36:48.011Z,72.00
2019-02-18T06:37:47.980Z,84.00
2019-02-18T06:38:47.959Z,92.00
2019-02-18T06:39:47.969Z,100.00
2019-02-18T06:40:47.937Z,112.00
2019-02-18T06:41:47.898Z,124.00
2019-02-18T06:42:47.870Z,136.00
2019-02-18T06:43:47.860Z,148.00
2019-02-18T06:44:47.830Z,156.00
2019-02-18T06:45:47.805Z,172.00
2019-02-18T06:46:47.792Z,184.00
2019-02-18T06:47:47.755Z,200.00
2019-02-18T06:48:47.746Z,212.00
2019-02-18T06:49:47.744Z,224.00
2019-02-18T06:50:47.692Z,240.00
2019-02-18T06:51:47.666Z,256.00
2019-02-18T06:52:47.669Z,272.00
2019-02-18T06:53:47.645Z,284.00
2019-02-18T06:54:47.606Z,300.00
2019-02-18T06:55:47.575Z,320.00
2019-02-18T06:56:47.563Z,336.00
2019-02-18T06:57:47.545Z,348.00
2019-02-18T06:58:47.512Z,364.00
2019-02-18T06:59:47.492Z,384.00
2019-02-18T07:00:47.485Z,400.00
2019-02-18T07:01:47.452Z,416.00
2019-02-18T07:02:47.416Z,436.00
2019-02-18T07:03:47.399Z,452.00
2019-02-18T07:04:47.385Z,468.00
2019-02-18T07:05:47.358Z,484.00
2019-02-18T07:06:47.363Z,500.00
2019-02-18T07:07:47.358Z,516.00
2019-02-18T07:08:47.287Z,532.00
2019-02-18T07:09:51.387Z,548.00
2019-02-18T07:10:47.246Z,564.00
2019-02-18T07:11:47.220Z,580.00
2019-02-18T07:12:47.210Z,596.00
2019-02-18T07:13:47.174Z,616.00
2019-02-18T07:14:47.152Z,628.00
2019-02-18T07:15:47.125Z,648.00
2019-02-18T07:16:47.100Z,664.00
2019-02-18T07:17:47.087Z,680.00
2019-02-18T07:18:47.068Z,696.00
2019-02-18T07:19:47.045Z,708.00
2019-02-18T07:20:47.024Z,728.00
2019-02-18T07:21:46.996Z,744.00
2019-02-18T07:22:46.999Z,760.00
2019-02-18T07:23:46.947Z,772.00
2019-02-18T07:24:46.993Z,792.00
2019-02-18T07:25:46.927Z,804.00
2019-02-18T07:26:46.947Z,816.00
2019-02-18T07:27:46.866Z,832.00
2019-02-18T07:28:46.849Z,840.00
2019-02-18T07:29:46.814Z,852.00
2019-02-18T07:30:46.787Z,864.00
2019-02-18T07:31:46.801Z,880.00
2019-02-18T07:32:46.748Z,888.00
2019-02-18T07:33:46.746Z,896.00
2019-02-18T07:34:46.708Z,912.00
2019-02-18T07:35:46.684Z,920.00
2019-02-18T07:36:46.668Z,932.00
2019-02-18T07:37:46.639Z,940.00
2019-02-18T07:38:46.656Z,948.00
2019-02-18T07:39:46.622Z,960.00
2019-02-18T07:40:46.602Z,972.00
2019-02-18T07:41:46.557Z,976.00
2019-02-18T07:42:46.549Z,984.00
2019-02-18T07:43:46.516Z,996.00
2019-02-18T07:44:46.486Z,1004.00
2019-02-18T07:45:46.467Z,1016.00
2019-02-18T07:46:46.437Z,1024.00
2019-02-18T07:47:46.424Z,1036.00
2019-02-18T07:48:46.430Z,1044.00
2019-02-18T07:49:46.387Z,1052.00
2019-02-18T07:50:46.401Z,1060.00
2019-02-18T07:51:46.366Z,1072.00
2019-02-18T07:52:46.311Z,1080.00
2019-02-18T07:53:46.289Z,1088.00
2019-02-18T07:54:46.279Z,1096.00
2019-02-18T07:55:46.251Z,1104.00
2019-02-18T07:56:46.235Z,1116.00
2019-02-18T07:57:46.215Z,1124.00
2019-02-18T07:58:46.208Z,1132.00
2019-02-18T07:59:46.164Z,1140.00
2019-02-18T08:00:46.153Z,1148.00
2019-02-18T08:01:46.154Z,1152.00
2019-02-18T08:02:46.091Z,1164.00
2019-02-18T08:03:46.092Z,1168.00
2019-02-18T08:04:46.110Z,1172.00
2019-02-18T08:05:46.062Z,1184.00
2019-02-18T08:06:46.010Z,1192.00
2019-02-18T08:07:45.986Z,1196.00
2019-02-18T08:08:45.976Z,1208.00
2019-02-18T08:09:45.944Z,1216.00
2019-02-18T08:10:45.934Z,1224.00
2019-02-18T08:11:45.910Z,1236.00
2019-02-18T08:12:45.898Z,1244.00
2019-02-18T08:13:45.864Z,1256.00
2019-02-18T08:14:45.847Z,1264.00
2019-02-18T08:15:45.813Z,1268.00
2019-02-18T08:16:45.795Z,1272.00
2019-02-18T08:17:45.781Z,1280.00
2019-02-18T08:18:45.750Z,1288.00
2019-02-18T08:19:45.757Z,1288.00
2019-02-18T08:20:45.730Z,1292.00
2019-02-18T08:21:45.685Z,1296.00
2019-02-18T08:22:45.682Z,1304.00
2019-02-18T08:23:45.673Z,1308.00
2019-02-18T08:24:45.634Z,1312.00
2019-02-18T08:25:45.631Z,1316.00
2019-02-18T08:26:45.590Z,1320.00
2019-02-18T08:27:45.561Z,1328.00
2019-02-18T08:28:45.539Z,1332.00
2019-02-18T08:29:45.531Z,1336.00
2019-02-18T08:30:45.491Z,1340.00
2019-02-18T08:31:45.501Z,1348.00
2019-02-18T08:32:45.467Z,1348.00
2019-02-18T08:33:45.464Z,1352.00
2019-02-18T08:34:45.423Z,1356.00
2019-02-18T08:35:45.386Z,1364.00
2019-02-18T08:36:45.395Z,1364.00
2019-02-18T08:37:45.378Z,1368.00
2019-02-18T08:38:45.350Z,1376.00
2019-02-18T08:39:45.303Z,1380.00
2019-02-18T08:40:45.317Z,1384.00
2019-02-18T08:41:45.289Z,1388.00
2019-02-18T08:42:45.250Z,1396.00
2019-02-18T08:43:45.221Z,1396.00
2019-02-18T08:44:45.227Z,1404.00
2019-02-18T08:45:45.205Z,1404.00
2019-02-18T08:46:45.163Z,1412.00
2019-02-18T08:47:45.161Z,1412.00
2019-02-18T08:48:45.133Z,1416.00
2019-02-18T08:49:45.103Z,1416.00
2019-02-18T08:50:45.088Z,1420.00
2019-02-18T08:51:45.056Z,1428.00
2019-02-18T08:52:45.030Z,1424.00
2019-02-18T08:53:45.007Z,1432.00
2019-02-18T08:54:45.006Z,1436.00
2019-02-18T08:55:44.964Z,1436.00
2019-02-18T08:56:44.951Z,1444.00
2019-02-18T08:57:44.937Z,1448.00
2019-02-18T08:58:44.910Z,1452.00
2019-02-18T08:59:44.906Z,1460.00
2019-02-18T09:00:44.894Z,1464.00
2019-02-18T09:01:44.872Z,1468.00
2019-02-18T09:02:44.822Z,1476.00
2019-02-18T09:03:44.811Z,1480.00
2019-02-18T09:04:44.797Z,1484.00
2019-02-18T09:05:44.762Z,1488.00
2019-02-18T09:06:44.750Z,1492.00
2019-02-18T09:07:44.725Z,1496.00
2019-02-18T09:08:44.700Z,1500.00
2019-02-18T09:09:44.680Z,1496.00
2019-02-18T09:10:44.687Z,1500.00
2019-02-18T09:11:44.651Z,1500.00
2019-02-18T09:12:44.663Z,1496.00
2019-02-18T09:13:44.609Z,1504.00
2019-02-18T09:14:44.626Z,1504.00
2019-02-18T09:15:44.574Z,1504.00
2019-02-18T09:16:44.541Z,1508.00
2019-02-18T09:17:44.531Z,1512.00
2019-02-18T09:18:44.504Z,1512.00
2019-02-18T09:19:44.496Z,1516.00
2019-02-18T09:20:44.473Z,1516.00
2019-02-18T09:21:44.450Z,1516.00
2019-02-18T09:22:44.423Z,1520.00
2019-02-18T09:23:44.435Z,1520.00
2019-02-18T09:24:44.382Z,1520.00
2019-02-18T09:25:44.376Z,1528.00
2019-02-18T09:26:44.337Z,1528.00
2019-02-18T09:27:44.321Z,1532.00
2019-02-18T09:28:44.332Z,1536.00
2019-02-18T09:29:44.302Z,1536.00
2019-02-18T09:30:44.257Z,1540.00
2019-02-18T09:31:44.233Z,1540.00
2019-02-18T09:32:44.249Z,1544.00
2019-02-18T09:33:44.211Z,1540.00
2019-02-18T09:34:44.172Z,1544.00
2019-02-18T09:35:44.155Z,1544.00
2019-02-18T09:36:44.136Z,1544.00
2019-02-18T09:37:44.129Z,1548.00
2019-02-18T09:38:44.114Z,1548.00
2019-02-18T09:39:44.117Z,1552.00
2019-02-18T09:40:48.360Z,1552.00
2019-02-18T09:41:44.037Z,1552.00
2019-02-18T09:42:44.022Z,1556.00
2019-02-18T09:43:43.993Z,1556.00
2019-02-18T09:44:43.982Z,1560.00
2019-02-18T09:45:43.964Z,1560.00
2019-02-18T09:46:43.943Z,1560.00
2019-02-18T09:47:43.920Z,1564.00
2019-02-18T09:48:43.901Z,1564.00
2019-02-18T09:49:43.901Z,1564.00
2019-02-18T09:50:43.857Z,1564.00
2019-02-18T09:51:43.864Z,1572.00
2019-02-18T09:52:43.830Z,1572.00
2019-02-18T09:53:43.803Z,1572.00
2019-02-18T09:54:43.785Z,1572.00
2019-02-18T09:55:43.792Z,1576.00
2019-02-18T09:56:43.738Z,1584.00
2019-02-18T09:57:43.733Z,1576.00
2019-02-18T09:58:43.698Z,1580.00
2019-02-18T09:59:43.675Z,1580.00
2019-02-18T10:00:43.676Z,1584.00
2019-02-18T10:01:43.637Z,1580.00
2019-02-18T10:02:43.611Z,1584.00
2019-02-18T10:03:43.599Z,1580.00
2019-02-18T10:04:43.616Z,1580.00
2019-02-18T10:05:43.559Z,1588.00
2019-02-18T10:06:43.543Z,1588.00
2019-02-18T10:07:43.535Z,1592.00
2019-02-18T10:08:43.504Z,1588.00
2019-02-18T10:09:43.489Z,1592.00
2019-02-18T10:10:43.454Z,1596.00
2019-02-18T10:11:43.469Z,1592.00
2019-02-18T10:12:43.418Z,1596.00
2019-02-18T10:13:43.401Z,1600.00
2019-02-18T10:14:43.449Z,1604.00
2019-02-18T10:15:43.361Z,1604.00
2019-02-18T10:16:43.366Z,1604.00
2019-02-18T10:17:43.356Z,1604.00
2019-02-18T10:18:43.313Z,1608.00
2019-02-18T10:19:43.294Z,1608.00
2019-02-18T10:20:43.290Z,1608.00
2019-02-18T10:21:43.259Z,1608.00
2019-02-18T10:22:43.237Z,1612.00
2019-02-18T10:23:43.208Z,1612.00
2019-02-18T10:24:50.574Z,1612.00
2019-02-18T10:25:43.167Z,1612.00
2019-02-18T10:26:43.156Z,1616.00
2019-02-18T10:27:43.148Z,1616.00
2019-02-18T10:28:43.121Z,1616.00
2019-02-18T10:29:43.094Z,1620.00
2019-02-18T10:30:43.074Z,1620.00
2019-02-18T10:31:43.064Z,1628.00
2019-02-18T10:32:43.042Z,1628.00
2019-02-18T10:33:43.009Z,1628.00
2019-02-18T10:34:42.994Z,1632.00
2019-02-18T10:35:42.990Z,1632.00
2019-02-18T10:36:43.013Z,1636.00
2019-02-18T10:37:42.956Z,1640.00
2019-02-18T10:38:43.019Z,1640.00
2019-02-18T10:39:42.916Z,1640.00
2019-02-18T10:40:42.925Z,1648.00
2019-02-18T10:41:42.863Z,1652.00
2019-02-18T10:42:42.834Z,1652.00
2019-02-18T10:43:42.843Z,1648.00
2019-02-18T10:44:42.792Z,1652.00
2019-02-18T10:45:42.781Z,1656.00
2019-02-18T10:46:42.755Z,1656.00
2019-02-18T10:47:42.750Z,1660.00
2019-02-18T10:48:42.740Z,1656.00
2019-02-18T10:49:42.712Z,1660.00
2019-02-18T10:50:42.677Z,1664.00
2019-02-18T10:51:42.673Z,1660.00
2019-02-18T10:52:42.639Z,1664.00
2019-02-18T10:53:42.647Z,1668.00
2019-02-18T10:54:42.621Z,1672.00
2019-02-18T10:55:42.593Z,1672.00
2019-02-18T10:56:42.587Z,1672.00
2019-02-18T10:57:42.576Z,1676.00
2019-02-18T10:58:42.536Z,1680.00
2019-02-18T10:59:42.516Z,1680.00
2019-02-18T11:00:42.484Z,1680.00
2019-02-18T11:01:42.473Z,1684.00
2019-02-18T11:02:42.472Z,1688.00
2019-02-18T11:03:42.469Z,1688.00
2019-02-18T11:04:42.437Z,1688.00
2019-02-18T11:05:42.408Z,1688.00
2019-02-18T11:06:42.379Z,1692.00
2019-02-18T11:07:42.361Z,1700.00
2019-02-18T11:08:42.339Z,1700.00
2019-02-18T11:09:42.351Z,1704.00
2019-02-18T11:10:42.332Z,1704.00
2019-02-18T11:11:42.305Z,1708.00
2019-02-18T11:12:42.257Z,1712.00
2019-02-18T11:13:42.292Z,1712.00
2019-02-18T11:14:42.312Z,1716.00
2019-02-18T11:17:53.751Z,1720.00
